Airfield :
LOGIN :

Register | Disclaimer

   EN    FR    IT 

 










Legend :    VFR   Marginal VFR   IFR   Intensive IFR   Very Intensive IFR
Visi :
Ceiling :
>= 8 km
>= 3000ft
5 to 8 km
1000 to 3000 ft
1500m to 5 km
500 to 1000 ft
800 to 1500m
200 to 500 ft
< 800m
< 200 ft
Symbols :   Thunderstorms  Fog  Heavy snow  Heavy precipitations  Wind > 20 kt
SIGMETs :     Misc.  Thunderstorms  Icing  Turbulence  Mountain Waves  Volcanic Ashes







- Airport Elevation : 2731 ft
- IATA code : LPY
- Download approach charts


LFHP - Le Puy Loudes

CURRENT METAR :
  • 171400Z AUTO 05007KT 360V080 CAVOK 27/12 Q1019

EXPIRED METARs :
  • 171330Z AUTO 06006KT 010V110 CAVOK 27/11 Q1019
  • 171300Z AUTO VRB06KT CAVOK 26/11 Q1020
  • 171230Z AUTO 06005KT 350V110 CAVOK 26/11 Q1020
  • 171200Z AUTO VRB04KT CAVOK 26/11 Q1020
  • 171130Z AUTO 06005KT 020V120 CAVOK 25/11 Q1021

Expired Forecast.
No reported NOTAMs for that airfield.



MET'MAP, your aeronautical weather chart ! - Copyright ORBIFLY December 2007 - Disclaimer

ORBIFLY MET'MAP TEAM :

Programming & Development : Alexandra Zaïnal
Concept & Development : Baudouin d'Aumeries
Co-Development & Prog : Marc-Olivier Méhu
Technical & hardware support : Manuel Goepfert

Contact : metmap@orbifly.com




SOURCES & CREDITS :

   NOAA